sensor_id;sensor_type;location;lat;lon;timestamp;P1;durP1;ratioP1;P2;durP2;ratioP2
53108;SDS011;39007;53.090;6.074;2023-02-28T00:00:02;12.40;;;3.20;;
53108;SDS011;39007;53.090;6.074;2023-02-28T00:02:35;14.88;;;3.78;;
53108;SDS011;39007;53.090;6.074;2023-02-28T00:05:02;13.80;;;3.22;;
53108;SDS011;39007;53.090;6.074;2023-02-28T00:07:29;9.60;;;3.15;;
53108;SDS011;39007;53.090;6.074;2023-02-28T00:09:55;11.85;;;3.70;;
53108;SDS011;39007;53.090;6.074;2023-02-28T00:12:21;10.25;;;3.40;;
53108;SDS011;39007;53.090;6.074;2023-02-28T00:14:48;16.50;;;3.78;;
53108;SDS011;39007;53.090;6.074;2023-02-28T00:17:14;16.83;;;3.60;;
53108;SDS011;39007;53.090;6.074;2023-02-28T00:19:41;8.70;;;3.17;;
53108;SDS011;39007;53.090;6.074;2023-02-28T00:22:07;12.80;;;3.05;;
53108;SDS011;39007;53.090;6.074;2023-02-28T00:24:33;9.82;;;3.05;;
53108;SDS011;39007;53.090;6.074;2023-02-28T00:26:59;9.50;;;2.95;;
53108;SDS011;39007;53.090;6.074;2023-02-28T00:29:25;11.27;;;3.13;;
53108;SDS011;39007;53.090;6.074;2023-02-28T00:31:51;11.68;;;3.38;;
53108;SDS011;39007;53.090;6.074;2023-02-28T00:34:17;12.73;;;3.17;;
53108;SDS011;39007;53.090;6.074;2023-02-28T00:36:43;13.93;;;3.40;;
53108;SDS011;39007;53.090;6.074;2023-02-28T00:39:11;13.70;;;3.75;;
53108;SDS011;39007;53.090;6.074;2023-02-28T00:41:37;13.18;;;3.30;;
53108;SDS011;39007;53.090;6.074;2023-02-28T00:44:03;12.02;;;3.95;;
53108;SDS011;39007;53.090;6.074;2023-02-28T00:46:29;12.27;;;3.28;;
53108;SDS011;39007;53.090;6.074;2023-02-28T00:48:55;13.10;;;3.97;;
53108;SDS011;39007;53.090;6.074;2023-02-28T00:51:21;12.80;;;3.63;;
53108;SDS011;39007;53.090;6.074;2023-02-28T00:53:47;15.48;;;4.07;;
53108;SDS011;39007;53.090;6.074;2023-02-28T00:56:13;13.23;;;3.90;;
53108;SDS011;39007;53.090;6.074;2023-02-28T00:58:39;13.38;;;4.07;;
53108;SDS011;39007;53.090;6.074;2023-02-28T01:01:05;13.25;;;3.60;;
53108;SDS011;39007;53.090;6.074;2023-02-28T01:03:32;10.63;;;3.70;;
53108;SDS011;39007;53.090;6.074;2023-02-28T01:05:58;13.98;;;3.83;;
53108;SDS011;39007;53.090;6.074;2023-02-28T01:08:24;12.60;;;3.92;;
53108;SDS011;39007;53.090;6.074;2023-02-28T01:10:51;8.93;;;3.72;;
53108;SDS011;39007;53.090;6.074;2023-02-28T01:13:17;14.45;;;3.78;;
53108;SDS011;39007;53.090;6.074;2023-02-28T01:15:51;11.73;;;3.92;;
53108;SDS011;39007;53.090;6.074;2023-02-28T01:18:18;11.05;;;3.78;;
53108;SDS011;39007;53.090;6.074;2023-02-28T01:20:44;9.77;;;3.80;;
53108;SDS011;39007;53.090;6.074;2023-02-28T01:23:11;8.98;;;3.88;;
53108;SDS011;39007;53.090;6.074;2023-02-28T01:25:37;14.20;;;4.30;;
53108;SDS011;39007;53.090;6.074;2023-02-28T01:28:04;14.70;;;3.80;;
53108;SDS011;39007;53.090;6.074;2023-02-28T01:30:31;14.77;;;3.88;;
53108;SDS011;39007;53.090;6.074;2023-02-28T01:32:57;14.38;;;3.97;;
53108;SDS011;39007;53.090;6.074;2023-02-28T01:35:23;13.57;;;3.55;;
53108;SDS011;39007;53.090;6.074;2023-02-28T01:37:50;10.48;;;3.70;;
53108;SDS011;39007;53.090;6.074;2023-02-28T01:40:16;12.52;;;4.22;;
53108;SDS011;39007;53.090;6.074;2023-02-28T01:42:42;11.77;;;3.78;;
53108;SDS011;39007;53.090;6.074;2023-02-28T01:47:43;14.00;;;4.10;;
53108;SDS011;39007;53.090;6.074;2023-02-28T01:50:10;11.85;;;3.92;;
53108;SDS011;39007;53.090;6.074;2023-02-28T01:52:37;10.40;;;3.85;;
53108;SDS011;39007;53.090;6.074;2023-02-28T01:55:04;9.38;;;3.50;;
53108;SDS011;39007;53.090;6.074;2023-02-28T01:57:33;11.93;;;3.63;;
53108;SDS011;39007;53.090;6.074;2023-02-28T02:00:15;11.60;;;3.30;;
53108;SDS011;39007;53.090;6.074;2023-02-28T02:02:42;15.25;;;4.22;;
53108;SDS011;39007;53.090;6.074;2023-02-28T02:05:10;12.30;;;3.58;;
53108;SDS011;39007;53.090;6.074;2023-02-28T02:07:37;13.20;;;4.28;;
53108;SDS011;39007;53.090;6.074;2023-02-28T02:10:11;13.25;;;3.78;;
53108;SDS011;39007;53.090;6.074;2023-02-28T02:15:22;15.57;;;3.88;;
53108;SDS011;39007;53.090;6.074;2023-02-28T02:17:51;14.93;;;4.18;;
53108;SDS011;39007;53.090;6.074;2023-02-28T02:20:29;9.98;;;3.70;;
53108;SDS011;39007;53.090;6.074;2023-02-28T02:25:28;10.88;;;4.15;;
53108;SDS011;39007;53.090;6.074;2023-02-28T02:35:57;11.52;;;4.53;;
53108;SDS011;39007;53.090;6.074;2023-02-28T02:43:45;11.50;;;3.78;;
53108;SDS011;39007;53.090;6.074;2023-02-28T02:46:18;14.00;;;4.20;;
53108;SDS011;39007;53.090;6.074;2023-02-28T02:48:45;10.50;;;3.80;;
53108;SDS011;39007;53.090;6.074;2023-02-28T02:51:15;13.60;;;4.60;;
53108;SDS011;39007;53.090;6.074;2023-02-28T02:53:46;14.07;;;4.00;;
53108;SDS011;39007;53.090;6.074;2023-02-28T02:56:14;14.75;;;4.60;;
53108;SDS011;39007;53.090;6.074;2023-02-28T02:58:42;12.00;;;4.13;;
53108;SDS011;39007;53.090;6.074;2023-02-28T03:01:14;13.73;;;4.20;;
53108;SDS011;39007;53.090;6.074;2023-02-28T03:03:41;13.60;;;4.47;;
53108;SDS011;39007;53.090;6.074;2023-02-28T03:06:08;12.40;;;4.40;;
53108;SDS011;39007;53.090;6.074;2023-02-28T03:08:36;12.57;;;5.05;;
53108;SDS011;39007;53.090;6.074;2023-02-28T03:11:06;14.77;;;4.85;;
53108;SDS011;39007;53.090;6.074;2023-02-28T03:23:52;11.98;;;4.30;;
53108;SDS011;39007;53.090;6.074;2023-02-28T03:26:21;12.82;;;4.78;;
53108;SDS011;39007;53.090;6.074;2023-02-28T03:28:58;15.23;;;5.03;;
53108;SDS011;39007;53.090;6.074;2023-02-28T03:31:48;12.18;;;4.13;;
53108;SDS011;39007;53.090;6.074;2023-02-28T03:34:36;16.20;;;5.03;;
53108;SDS011;39007;53.090;6.074;2023-02-28T03:37:05;18.33;;;4.75;;
53108;SDS011;39007;53.090;6.074;2023-02-28T03:39:40;13.63;;;4.40;;
53108;SDS011;39007;53.090;6.074;2023-02-28T03:42:14;16.67;;;4.28;;
53108;SDS011;39007;53.090;6.074;2023-02-28T03:44:42;15.88;;;4.32;;
53108;SDS011;39007;53.090;6.074;2023-02-28T03:47:11;13.68;;;4.50;;
53108;SDS011;39007;53.090;6.074;2023-02-28T03:49:40;17.70;;;4.22;;
53108;SDS011;39007;53.090;6.074;2023-02-28T03:52:08;11.30;;;4.55;;
53108;SDS011;39007;53.090;6.074;2023-02-28T03:54:36;13.77;;;4.72;;
53108;SDS011;39007;53.090;6.074;2023-02-28T03:57:10;13.10;;;4.40;;
53108;SDS011;39007;53.090;6.074;2023-02-28T03:59:39;16.20;;;4.78;;
53108;SDS011;39007;53.090;6.074;2023-02-28T04:02:05;19.10;;;4.85;;
53108;SDS011;39007;53.090;6.074;2023-02-28T04:04:31;11.60;;;4.13;;
53108;SDS011;39007;53.090;6.074;2023-02-28T04:07:02;11.27;;;4.43;;
53108;SDS011;39007;53.090;6.074;2023-02-28T04:09:28;15.70;;;4.03;;
53108;SDS011;39007;53.090;6.074;2023-02-28T04:11:55;11.82;;;4.10;;
53108;SDS011;39007;53.090;6.074;2023-02-28T04:14:21;11.25;;;3.95;;
53108;SDS011;39007;53.090;6.074;2023-02-28T04:16:47;14.60;;;4.60;;
53108;SDS011;39007;53.090;6.074;2023-02-28T04:19:14;10.82;;;4.32;;
53108;SDS011;39007;53.090;6.074;2023-02-28T04:21:41;20.60;;;4.00;;
53108;SDS011;39007;53.090;6.074;2023-02-28T04:24:09;12.93;;;4.57;;
53108;SDS011;39007;53.090;6.074;2023-02-28T04:26:39;14.25;;;5.25;;
53108;SDS011;39007;53.090;6.074;2023-02-28T04:29:05;10.48;;;4.30;;
53108;SDS011;39007;53.090;6.074;2023-02-28T04:31:32;7.93;;;4.10;;
53108;SDS011;39007;53.090;6.074;2023-02-28T04:33:58;8.40;;;4.75;;
53108;SDS011;39007;53.090;6.074;2023-02-28T04:36:25;7.60;;;4.72;;
53108;SDS011;39007;53.090;6.074;2023-02-28T04:38:51;10.35;;;5.43;;
53108;SDS011;39007;53.090;6.074;2023-02-28T04:41:17;9.15;;;5.20;;
53108;SDS011;39007;53.090;6.074;2023-02-28T04:43:43;9.60;;;5.57;;
53108;SDS011;39007;53.090;6.074;2023-02-28T04:46:09;12.43;;;6.78;;
53108;SDS011;39007;53.090;6.074;2023-02-28T04:48:36;12.70;;;7.40;;
53108;SDS011;39007;53.090;6.074;2023-02-28T04:51:03;12.65;;;7.15;;
53108;SDS011;39007;53.090;6.074;2023-02-28T04:53:29;10.73;;;7.20;;
53108;SDS011;39007;53.090;6.074;2023-02-28T04:55:56;11.88;;;7.30;;
53108;SDS011;39007;53.090;6.074;2023-02-28T04:58:23;10.48;;;6.90;;
53108;SDS011;39007;53.090;6.074;2023-02-28T05:00:52;9.02;;;6.43;;
53108;SDS011;39007;53.090;6.074;2023-02-28T05:03:19;9.23;;;6.03;;
53108;SDS011;39007;53.090;6.074;2023-02-28T05:05:46;9.18;;;6.05;;
53108;SDS011;39007;53.090;6.074;2023-02-28T05:08:12;9.00;;;6.45;;
53108;SDS011;39007;53.090;6.074;2023-02-28T05:10:38;9.25;;;5.85;;
53108;SDS011;39007;53.090;6.074;2023-02-28T05:13:04;9.43;;;6.25;;
53108;SDS011;39007;53.090;6.074;2023-02-28T05:15:30;8.63;;;5.93;;
53108;SDS011;39007;53.090;6.074;2023-02-28T05:17:56;8.52;;;5.03;;
53108;SDS011;39007;53.090;6.074;2023-02-28T05:20:22;7.43;;;5.10;;
53108;SDS011;39007;53.090;6.074;2023-02-28T05:22:49;7.93;;;5.18;;
53108;SDS011;39007;53.090;6.074;2023-02-28T05:25:19;8.80;;;5.47;;
53108;SDS011;39007;53.090;6.074;2023-02-28T05:27:46;9.02;;;6.00;;
53108;SDS011;39007;53.090;6.074;2023-02-28T05:30:12;10.02;;;6.93;;
53108;SDS011;39007;53.090;6.074;2023-02-28T05:32:39;8.75;;;6.18;;
53108;SDS011;39007;53.090;6.074;2023-02-28T05:35:09;9.80;;;6.15;;
53108;SDS011;39007;53.090;6.074;2023-02-28T05:37:36;7.88;;;5.60;;
53108;SDS011;39007;53.090;6.074;2023-02-28T05:40:02;9.13;;;6.10;;
53108;SDS011;39007;53.090;6.074;2023-02-28T05:42:31;12.00;;;6.45;;
53108;SDS011;39007;53.090;6.074;2023-02-28T05:44:57;11.00;;;6.78;;
53108;SDS011;39007;53.090;6.074;2023-02-28T05:47:24;9.45;;;6.20;;
53108;SDS011;39007;53.090;6.074;2023-02-28T05:49:50;8.50;;;5.97;;
53108;SDS011;39007;53.090;6.074;2023-02-28T05:52:16;10.95;;;6.65;;
53108;SDS011;39007;53.090;6.074;2023-02-28T05:54:42;8.88;;;6.50;;
53108;SDS011;39007;53.090;6.074;2023-02-28T05:57:08;10.20;;;6.45;;
53108;SDS011;39007;53.090;6.074;2023-02-28T05:59:34;9.52;;;6.18;;
53108;SDS011;39007;53.090;6.074;2023-02-28T06:02:04;8.70;;;6.18;;
53108;SDS011;39007;53.090;6.074;2023-02-28T06:04:30;9.23;;;6.22;;
53108;SDS011;39007;53.090;6.074;2023-02-28T06:06:56;9.45;;;6.18;;
53108;SDS011;39007;53.090;6.074;2023-02-28T06:09:22;7.63;;;5.32;;
53108;SDS011;39007;53.090;6.074;2023-02-28T06:11:50;6.95;;;5.22;;
53108;SDS011;39007;53.090;6.074;2023-02-28T06:14:16;7.43;;;5.63;;
53108;SDS011;39007;53.090;6.074;2023-02-28T06:16:43;7.50;;;6.10;;
53108;SDS011;39007;53.090;6.074;2023-02-28T06:19:09;12.85;;;7.50;;
53108;SDS011;39007;53.090;6.074;2023-02-28T06:21:35;11.40;;;8.35;;
53108;SDS011;39007;53.090;6.074;2023-02-28T06:24:02;12.25;;;9.05;;
53108;SDS011;39007;53.090;6.074;2023-02-28T06:26:28;13.07;;;10.02;;
53108;SDS011;39007;53.090;6.074;2023-02-28T06:28:54;16.45;;;10.90;;
53108;SDS011;39007;53.090;6.074;2023-02-28T06:31:21;13.60;;;10.85;;
53108;SDS011;39007;53.090;6.074;2023-02-28T06:33:47;14.13;;;11.48;;
53108;SDS011;39007;53.090;6.074;2023-02-28T06:36:14;14.57;;;11.10;;
53108;SDS011;39007;53.090;6.074;2023-02-28T06:38:40;14.43;;;11.25;;
53108;SDS011;39007;53.090;6.074;2023-02-28T06:41:06;16.63;;;11.20;;
53108;SDS011;39007;53.090;6.074;2023-02-28T06:43:34;17.65;;;12.20;;
53108;SDS011;39007;53.090;6.074;2023-02-28T06:46:01;16.85;;;12.02;;
53108;SDS011;39007;53.090;6.074;2023-02-28T06:48:27;16.42;;;12.18;;
53108;SDS011;39007;53.090;6.074;2023-02-28T06:53:29;15.82;;;12.13;;
53108;SDS011;39007;53.090;6.074;2023-02-28T06:55:55;16.52;;;12.30;;
53108;SDS011;39007;53.090;6.074;2023-02-28T06:58:21;15.23;;;11.82;;
53108;SDS011;39007;53.090;6.074;2023-02-28T07:00:50;15.82;;;12.32;;
53108;SDS011;39007;53.090;6.074;2023-02-28T07:03:16;16.98;;;12.90;;
53108;SDS011;39007;53.090;6.074;2023-02-28T07:05:43;18.58;;;12.95;;
53108;SDS011;39007;53.090;6.074;2023-02-28T07:08:09;18.15;;;14.13;;
53108;SDS011;39007;53.090;6.074;2023-02-28T07:10:39;17.00;;;14.02;;
53108;SDS011;39007;53.090;6.074;2023-02-28T07:13:05;20.15;;;15.02;;
53108;SDS011;39007;53.090;6.074;2023-02-28T07:15:32;20.70;;;15.15;;
53108;SDS011;39007;53.090;6.074;2023-02-28T07:17:58;19.52;;;15.45;;
53108;SDS011;39007;53.090;6.074;2023-02-28T07:20:24;20.50;;;15.80;;
53108;SDS011;39007;53.090;6.074;2023-02-28T07:22:50;21.67;;;15.82;;
53108;SDS011;39007;53.090;6.074;2023-02-28T07:25:23;22.40;;;16.40;;
53108;SDS011;39007;53.090;6.074;2023-02-28T07:27:49;20.95;;;16.08;;
53108;SDS011;39007;53.090;6.074;2023-02-28T07:30:16;20.48;;;15.82;;
53108;SDS011;39007;53.090;6.074;2023-02-28T07:32:42;21.55;;;16.27;;
53108;SDS011;39007;53.090;6.074;2023-02-28T07:35:08;22.65;;;16.80;;
53108;SDS011;39007;53.090;6.074;2023-02-28T07:37:34;21.98;;;16.88;;
53108;SDS011;39007;53.090;6.074;2023-02-28T07:40:05;23.00;;;16.42;;
53108;SDS011;39007;53.090;6.074;2023-02-28T07:42:33;25.33;;;16.73;;
53108;SDS011;39007;53.090;6.074;2023-02-28T07:45:00;23.45;;;16.75;;
53108;SDS011;39007;53.090;6.074;2023-02-28T07:47:26;22.65;;;16.00;;
53108;SDS011;39007;53.090;6.074;2023-02-28T07:49:52;22.92;;;17.33;;
53108;SDS011;39007;53.090;6.074;2023-02-28T07:52:18;22.98;;;16.98;;
53108;SDS011;39007;53.090;6.074;2023-02-28T07:54:44;25.92;;;18.02;;
53108;SDS011;39007;53.090;6.074;2023-02-28T07:57:10;22.52;;;17.00;;
53108;SDS011;39007;53.090;6.074;2023-02-28T07:59:36;22.67;;;16.73;;
53108;SDS011;39007;53.090;6.074;2023-02-28T08:02:02;22.38;;;16.55;;
53108;SDS011;39007;53.090;6.074;2023-02-28T08:04:31;22.85;;;17.63;;
53108;SDS011;39007;53.090;6.074;2023-02-28T08:06:57;23.60;;;16.92;;
53108;SDS011;39007;53.090;6.074;2023-02-28T08:09:23;22.45;;;16.92;;
53108;SDS011;39007;53.090;6.074;2023-02-28T08:11:50;22.05;;;16.10;;
53108;SDS011;39007;53.090;6.074;2023-02-28T08:14:16;22.27;;;17.10;;
53108;SDS011;39007;53.090;6.074;2023-02-28T08:16:42;20.90;;;16.55;;
53108;SDS011;39007;53.090;6.074;2023-02-28T08:19:08;24.65;;;18.10;;
53108;SDS011;39007;53.090;6.074;2023-02-28T08:21:35;20.80;;;15.93;;
53108;SDS011;39007;53.090;6.074;2023-02-28T08:24:01;20.90;;;17.15;;
53108;SDS011;39007;53.090;6.074;2023-02-28T08:26:27;21.67;;;16.40;;
53108;SDS011;39007;53.090;6.074;2023-02-28T08:28:53;22.55;;;17.55;;
53108;SDS011;39007;53.090;6.074;2023-02-28T08:31:19;21.15;;;16.65;;
53108;SDS011;39007;53.090;6.074;2023-02-28T08:33:45;21.85;;;16.40;;
53108;SDS011;39007;53.090;6.074;2023-02-28T08:36:13;20.42;;;16.17;;
53108;SDS011;39007;53.090;6.074;2023-02-28T08:38:40;22.20;;;17.98;;
53108;SDS011;39007;53.090;6.074;2023-02-28T08:41:07;20.70;;;16.52;;
53108;SDS011;39007;53.090;6.074;2023-02-28T08:43:34;21.38;;;15.98;;
53108;SDS011;39007;53.090;6.074;2023-02-28T08:46:00;20.10;;;15.88;;
53108;SDS011;39007;53.090;6.074;2023-02-28T08:48:27;19.95;;;15.77;;
53108;SDS011;39007;53.090;6.074;2023-02-28T08:50:54;21.15;;;15.52;;
53108;SDS011;39007;53.090;6.074;2023-02-28T08:53:21;19.40;;;15.82;;
53108;SDS011;39007;53.090;6.074;2023-02-28T08:55:47;19.67;;;15.57;;
53108;SDS011;39007;53.090;6.074;2023-02-28T08:58:13;19.85;;;15.40;;
53108;SDS011;39007;53.090;6.074;2023-02-28T09:00:39;19.02;;;14.57;;
53108;SDS011;39007;53.090;6.074;2023-02-28T09:03:05;18.90;;;14.27;;
53108;SDS011;39007;53.090;6.074;2023-02-28T09:05:31;16.50;;;14.25;;
53108;SDS011;39007;53.090;6.074;2023-02-28T09:07:57;17.90;;;14.48;;
53108;SDS011;39007;53.090;6.074;2023-02-28T09:10:23;16.98;;;14.30;;
53108;SDS011;39007;53.090;6.074;2023-02-28T09:12:49;18.73;;;15.10;;
53108;SDS011;39007;53.090;6.074;2023-02-28T09:15:15;18.42;;;14.85;;
53108;SDS011;39007;53.090;6.074;2023-02-28T09:17:41;19.42;;;14.40;;
53108;SDS011;39007;53.090;6.074;2023-02-28T09:20:08;16.42;;;14.27;;
53108;SDS011;39007;53.090;6.074;2023-02-28T09:22:34;21.45;;;14.95;;
53108;SDS011;39007;53.090;6.074;2023-02-28T09:25:00;15.68;;;13.60;;
53108;SDS011;39007;53.090;6.074;2023-02-28T09:27:26;18.17;;;14.55;;
53108;SDS011;39007;53.090;6.074;2023-02-28T09:29:52;16.30;;;12.48;;
53108;SDS011;39007;53.090;6.074;2023-02-28T09:32:18;17.42;;;14.10;;
53108;SDS011;39007;53.090;6.074;2023-02-28T09:34:44;17.58;;;13.73;;
53108;SDS011;39007;53.090;6.074;2023-02-28T09:37:11;19.15;;;13.10;;
53108;SDS011;39007;53.090;6.074;2023-02-28T09:39:37;15.73;;;12.38;;
53108;SDS011;39007;53.090;6.074;2023-02-28T09:42:03;16.83;;;13.70;;
53108;SDS011;39007;53.090;6.074;2023-02-28T09:44:40;19.15;;;13.43;;
53108;SDS011;39007;53.090;6.074;2023-02-28T09:47:12;14.35;;;12.30;;
53108;SDS011;39007;53.090;6.074;2023-02-28T09:49:41;14.05;;;11.88;;
53108;SDS011;39007;53.090;6.074;2023-02-28T09:52:18;14.85;;;12.30;;
53108;SDS011;39007;53.090;6.074;2023-02-28T09:54:44;16.10;;;12.25;;
53108;SDS011;39007;53.090;6.074;2023-02-28T09:59:51;15.48;;;12.40;;
53108;SDS011;39007;53.090;6.074;2023-02-28T10:04:59;13.77;;;11.13;;
53108;SDS011;39007;53.090;6.074;2023-02-28T10:10:29;15.55;;;11.65;;
53108;SDS011;39007;53.090;6.074;2023-02-28T10:15:24;12.48;;;10.15;;
53108;SDS011;39007;53.090;6.074;2023-02-28T10:17:53;12.65;;;9.95;;
53108;SDS011;39007;53.090;6.074;2023-02-28T10:20:20;13.27;;;10.48;;
53108;SDS011;39007;53.090;6.074;2023-02-28T10:22:56;13.25;;;9.35;;
53108;SDS011;39007;53.090;6.074;2023-02-28T10:25:25;12.70;;;9.45;;
53108;SDS011;39007;53.090;6.074;2023-02-28T10:28:13;10.55;;;9.10;;
53108;SDS011;39007;53.090;6.074;2023-02-28T10:30:39;12.82;;;9.07;;
53108;SDS011;39007;53.090;6.074;2023-02-28T10:33:08;12.30;;;8.20;;
53108;SDS011;39007;53.090;6.074;2023-02-28T10:35:42;10.15;;;8.40;;
53108;SDS011;39007;53.090;6.074;2023-02-28T10:38:12;14.98;;;8.80;;
53108;SDS011;39007;53.090;6.074;2023-02-28T10:40:40;10.20;;;8.43;;
53108;SDS011;39007;53.090;6.074;2023-02-28T10:45:38;9.90;;;6.70;;
53108;SDS011;39007;53.090;6.074;2023-02-28T10:56:04;10.65;;;7.13;;
53108;SDS011;39007;53.090;6.074;2023-02-28T11:01:03;8.73;;;4.50;;
53108;SDS011;39007;53.090;6.074;2023-02-28T11:03:30;9.10;;;5.50;;
53108;SDS011;39007;53.090;6.074;2023-02-28T11:05:57;7.13;;;4.20;;
53108;SDS011;39007;53.090;6.074;2023-02-28T11:08:24;5.80;;;3.90;;
53108;SDS011;39007;53.090;6.074;2023-02-28T11:10:54;6.35;;;3.92;;
53108;SDS011;39007;53.090;6.074;2023-02-28T11:13:21;7.03;;;4.00;;
53108;SDS011;39007;53.090;6.074;2023-02-28T11:15:51;6.75;;;3.80;;
53108;SDS011;39007;53.090;6.074;2023-02-28T11:19:01;7.10;;;3.60;;
53108;SDS011;39007;53.090;6.074;2023-02-28T11:21:08;7.55;;;3.70;;
53108;SDS011;39007;53.090;6.074;2023-02-28T11:23:35;7.00;;;3.40;;
53108;SDS011;39007;53.090;6.074;2023-02-28T11:26:03;6.90;;;3.60;;
53108;SDS011;39007;53.090;6.074;2023-02-28T11:28:31;6.07;;;3.80;;
53108;SDS011;39007;53.090;6.074;2023-02-28T11:36:18;5.45;;;3.47;;
53108;SDS011;39007;53.090;6.074;2023-02-28T11:38:44;5.63;;;3.80;;
53108;SDS011;39007;53.090;6.074;2023-02-28T11:43:44;6.13;;;4.13;;
53108;SDS011;39007;53.090;6.074;2023-02-28T11:51:28;6.13;;;4.32;;
53108;SDS011;39007;53.090;6.074;2023-02-28T11:56:50;6.70;;;4.38;;
53108;SDS011;39007;53.090;6.074;2023-02-28T11:59:35;8.80;;;4.80;;
53108;SDS011;39007;53.090;6.074;2023-02-28T12:02:24;8.00;;;4.53;;
53108;SDS011;39007;53.090;6.074;2023-02-28T12:07:25;8.40;;;3.72;;
53108;SDS011;39007;53.090;6.074;2023-02-28T12:10:11;6.72;;;3.72;;
53108;SDS011;39007;53.090;6.074;2023-02-28T12:12:50;7.28;;;3.92;;
53108;SDS011;39007;53.090;6.074;2023-02-28T12:20:37;8.00;;;4.00;;
53108;SDS011;39007;53.090;6.074;2023-02-28T12:23:10;6.47;;;3.80;;
53108;SDS011;39007;53.090;6.074;2023-02-28T12:28:12;8.10;;;4.18;;
53108;SDS011;39007;53.090;6.074;2023-02-28T12:31:14;6.88;;;3.70;;
53108;SDS011;39007;53.090;6.074;2023-02-28T12:33:33;6.93;;;4.00;;
53108;SDS011;39007;53.090;6.074;2023-02-28T12:36:01;7.28;;;4.10;;
53108;SDS011;39007;53.090;6.074;2023-02-28T12:38:29;7.00;;;4.25;;
53108;SDS011;39007;53.090;6.074;2023-02-28T12:41:00;9.43;;;3.95;;
53108;SDS011;39007;53.090;6.074;2023-02-28T12:43:33;8.48;;;4.07;;
53108;SDS011;39007;53.090;6.074;2023-02-28T12:46:14;6.57;;;4.50;;
53108;SDS011;39007;53.090;6.074;2023-02-28T12:48:50;7.72;;;4.40;;
53108;SDS011;39007;53.090;6.074;2023-02-28T12:51:18;8.05;;;4.80;;
53108;SDS011;39007;53.090;6.074;2023-02-28T12:54:00;8.82;;;4.55;;
53108;SDS011;39007;53.090;6.074;2023-02-28T12:59:10;7.80;;;4.68;;
53108;SDS011;39007;53.090;6.074;2023-02-28T13:09:29;6.47;;;4.00;;
53108;SDS011;39007;53.090;6.074;2023-02-28T13:11:55;6.40;;;3.90;;
53108;SDS011;39007;53.090;6.074;2023-02-28T13:16:50;6.25;;;3.80;;
53108;SDS011;39007;53.090;6.074;2023-02-28T13:19:17;6.38;;;3.97;;
53108;SDS011;39007;53.090;6.074;2023-02-28T13:21:44;6.00;;;3.63;;
53108;SDS011;39007;53.090;6.074;2023-02-28T13:24:11;8.88;;;4.38;;
53108;SDS011;39007;53.090;6.074;2023-02-28T13:34:21;8.55;;;3.97;;
53108;SDS011;39007;53.090;6.074;2023-02-28T13:36:47;6.88;;;4.10;;
53108;SDS011;39007;53.090;6.074;2023-02-28T13:42:03;5.47;;;3.50;;
53108;SDS011;39007;53.090;6.074;2023-02-28T13:47:32;5.97;;;3.65;;
53108;SDS011;39007;53.090;6.074;2023-02-28T13:53:27;6.25;;;3.58;;
53108;SDS011;39007;53.090;6.074;2023-02-28T13:55:46;5.88;;;3.92;;
53108;SDS011;39007;53.090;6.074;2023-02-28T14:01:00;5.28;;;3.55;;
53108;SDS011;39007;53.090;6.074;2023-02-28T14:06:08;6.22;;;3.70;;
53108;SDS011;39007;53.090;6.074;2023-02-28T14:08:36;6.70;;;3.42;;
53108;SDS011;39007;53.090;6.074;2023-02-28T14:11:03;4.85;;;3.40;;
53108;SDS011;39007;53.090;6.074;2023-02-28T14:13:41;5.93;;;3.72;;
53108;SDS011;39007;53.090;6.074;2023-02-28T14:16:14;6.97;;;3.83;;
53108;SDS011;39007;53.090;6.074;2023-02-28T14:18:51;5.97;;;3.88;;
53108;SDS011;39007;53.090;6.074;2023-02-28T14:21:34;6.80;;;3.85;;
53108;SDS011;39007;53.090;6.074;2023-02-28T14:26:55;6.80;;;3.75;;
53108;SDS011;39007;53.090;6.074;2023-02-28T14:37:27;6.13;;;4.03;;
53108;SDS011;39007;53.090;6.074;2023-02-28T14:39:53;6.90;;;3.85;;
53108;SDS011;39007;53.090;6.074;2023-02-28T14:42:34;6.93;;;3.97;;
53108;SDS011;39007;53.090;6.074;2023-02-28T14:45:02;8.10;;;3.90;;
53108;SDS011;39007;53.090;6.074;2023-02-28T14:47:32;7.15;;;3.70;;
53108;SDS011;39007;53.090;6.074;2023-02-28T14:49:59;7.15;;;4.00;;
53108;SDS011;39007;53.090;6.074;2023-02-28T14:52:30;6.35;;;3.95;;
53108;SDS011;39007;53.090;6.074;2023-02-28T14:57:31;8.00;;;3.95;;
53108;SDS011;39007;53.090;6.074;2023-02-28T14:59:58;5.90;;;3.83;;
53108;SDS011;39007;53.090;6.074;2023-02-28T15:02:24;8.95;;;3.75;;
53108;SDS011;39007;53.090;6.074;2023-02-28T15:05:51;8.35;;;4.00;;
53108;SDS011;39007;53.090;6.074;2023-02-28T15:07:47;7.47;;;3.55;;
53108;SDS011;39007;53.090;6.074;2023-02-28T15:12:39;6.30;;;4.05;;
53108;SDS011;39007;53.090;6.074;2023-02-28T15:15:13;7.32;;;4.32;;
53108;SDS011;39007;53.090;6.074;2023-02-28T15:17:40;6.20;;;4.10;;
53108;SDS011;39007;53.090;6.074;2023-02-28T15:20:10;11.07;;;3.67;;
53108;SDS011;39007;53.090;6.074;2023-02-28T15:22:37;7.35;;;3.75;;
53108;SDS011;39007;53.090;6.074;2023-02-28T15:25:04;6.25;;;3.90;;
53108;SDS011;39007;53.090;6.074;2023-02-28T15:27:33;5.97;;;3.83;;
53108;SDS011;39007;53.090;6.074;2023-02-28T15:30:00;8.15;;;4.07;;
53108;SDS011;39007;53.090;6.074;2023-02-28T15:32:31;9.20;;;4.05;;
53108;SDS011;39007;53.090;6.074;2023-02-28T15:34:59;6.82;;;3.65;;
53108;SDS011;39007;53.090;6.074;2023-02-28T15:42:36;6.40;;;4.07;;
53108;SDS011;39007;53.090;6.074;2023-02-28T15:45:02;6.63;;;3.90;;
53108;SDS011;39007;53.090;6.074;2023-02-28T15:47:29;8.95;;;4.50;;
53108;SDS011;39007;53.090;6.074;2023-02-28T15:50:03;6.82;;;4.22;;
53108;SDS011;39007;53.090;6.074;2023-02-28T15:52:40;7.47;;;4.45;;
53108;SDS011;39007;53.090;6.074;2023-02-28T15:57:38;7.20;;;4.43;;
53108;SDS011;39007;53.090;6.074;2023-02-28T16:00:05;6.18;;;4.13;;
53108;SDS011;39007;53.090;6.074;2023-02-28T16:02:36;7.97;;;4.30;;
53108;SDS011;39007;53.090;6.074;2023-02-28T16:07:35;7.22;;;4.55;;
53108;SDS011;39007;53.090;6.074;2023-02-28T16:10:01;8.82;;;4.20;;
53108;SDS011;39007;53.090;6.074;2023-02-28T16:12:28;6.22;;;4.30;;
53108;SDS011;39007;53.090;6.074;2023-02-28T16:14:55;6.75;;;4.30;;
53108;SDS011;39007;53.090;6.074;2023-02-28T16:17:23;7.32;;;4.45;;
53108;SDS011;39007;53.090;6.074;2023-02-28T16:19:50;8.23;;;4.40;;
53108;SDS011;39007;53.090;6.074;2023-02-28T16:22:16;9.15;;;5.25;;
53108;SDS011;39007;53.090;6.074;2023-02-28T16:24:42;7.07;;;4.43;;
53108;SDS011;39007;53.090;6.074;2023-02-28T16:27:15;10.05;;;4.90;;
53108;SDS011;39007;53.090;6.074;2023-02-28T16:29:42;7.70;;;4.60;;
53108;SDS011;39007;53.090;6.074;2023-02-28T16:32:10;9.95;;;5.00;;
53108;SDS011;39007;53.090;6.074;2023-02-28T16:34:37;53.38;;;35.03;;
53108;SDS011;39007;53.090;6.074;2023-02-28T16:37:04;13.43;;;8.93;;
53108;SDS011;39007;53.090;6.074;2023-02-28T16:39:36;8.82;;;5.50;;
53108;SDS011;39007;53.090;6.074;2023-02-28T16:42:02;7.75;;;5.35;;
53108;SDS011;39007;53.090;6.074;2023-02-28T16:46:54;8.38;;;5.20;;
53108;SDS011;39007;53.090;6.074;2023-02-28T16:49:21;8.63;;;5.13;;
53108;SDS011;39007;53.090;6.074;2023-02-28T16:51:47;10.20;;;6.15;;
53108;SDS011;39007;53.090;6.074;2023-02-28T16:54:13;8.88;;;5.53;;
53108;SDS011;39007;53.090;6.074;2023-02-28T16:56:40;9.13;;;5.28;;
53108;SDS011;39007;53.090;6.074;2023-02-28T16:59:08;11.20;;;6.38;;
53108;SDS011;39007;53.090;6.074;2023-02-28T17:01:34;18.27;;;14.30;;
53108;SDS011;39007;53.090;6.074;2023-02-28T17:04:00;18.58;;;14.05;;
53108;SDS011;39007;53.090;6.074;2023-02-28T17:06:27;15.07;;;9.48;;
53108;SDS011;39007;53.090;6.074;2023-02-28T17:08:53;12.25;;;7.30;;